sensor_id;sensor_type;location;lat;lon;timestamp;temperature;humidity
72814;DHT22;60945;48.516;-2.768;2023-06-10T00:01:32;18.80;99.90
72814;DHT22;60945;48.516;-2.768;2023-06-10T00:04:02;18.80;99.90
72814;DHT22;60945;48.516;-2.768;2023-06-10T00:06:28;18.80;99.90
72814;DHT22;60945;48.516;-2.768;2023-06-10T00:08:54;18.80;99.90
72814;DHT22;60945;48.516;-2.768;2023-06-10T00:11:21;18.80;99.90
72814;DHT22;60945;48.516;-2.768;2023-06-10T00:13:47;18.80;99.90
72814;DHT22;60945;48.516;-2.768;2023-06-10T00:16:12;18.80;99.90
72814;DHT22;60945;48.516;-2.768;2023-06-10T00:18:38;18.80;99.90
72814;DHT22;60945;48.516;-2.768;2023-06-10T00:21:04;18.80;99.90
72814;DHT22;60945;48.516;-2.768;2023-06-10T00:23:33;18.80;99.90
72814;DHT22;60945;48.516;-2.768;2023-06-10T00:26:03;18.80;99.90
72814;DHT22;60945;48.516;-2.768;2023-06-10T00:28:28;18.70;99.70
72814;DHT22;60945;48.516;-2.768;2023-06-10T00:30:54;18.70;99.70
72814;DHT22;60945;48.516;-2.768;2023-06-10T00:33:20;18.80;99.80
72814;DHT22;60945;48.516;-2.768;2023-06-10T00:35:46;18.70;99.50
72814;DHT22;60945;48.516;-2.768;2023-06-10T00:38:15;18.70;99.40
72814;DHT22;60945;48.516;-2.768;2023-06-10T00:40:41;18.70;99.80
72814;DHT22;60945;48.516;-2.768;2023-06-10T00:43:07;18.70;99.80
72814;DHT22;60945;48.516;-2.768;2023-06-10T00:45:33;18.70;99.90
72814;DHT22;60945;48.516;-2.768;2023-06-10T00:48:00;18.70;99.90
72814;DHT22;60945;48.516;-2.768;2023-06-10T00:50:26;18.70;99.90
72814;DHT22;60945;48.516;-2.768;2023-06-10T00:52:56;18.70;99.90
72814;DHT22;60945;48.516;-2.768;2023-06-10T00:55:22;18.70;99.90
72814;DHT22;60945;48.516;-2.768;2023-06-10T00:57:49;18.60;99.90
72814;DHT22;60945;48.516;-2.768;2023-06-10T01:00:15;18.60;99.90
72814;DHT22;60945;48.516;-2.768;2023-06-10T01:02:41;18.70;99.90
72814;DHT22;60945;48.516;-2.768;2023-06-10T01:05:08;18.60;99.90
72814;DHT22;60945;48.516;-2.768;2023-06-10T01:07:43;18.60;99.90
72814;DHT22;60945;48.516;-2.768;2023-06-10T01:10:24;18.70;99.90
72814;DHT22;60945;48.516;-2.768;2023-06-10T01:13:02;18.70;99.90
72814;DHT22;60945;48.516;-2.768;2023-06-10T01:15:31;18.70;99.90
72814;DHT22;60945;48.516;-2.768;2023-06-10T01:17:59;18.70;99.60
72814;DHT22;60945;48.516;-2.768;2023-06-10T01:20:27;18.60;99.40
72814;DHT22;60945;48.516;-2.768;2023-06-10T01:22:56;18.60;99.40
72814;DHT22;60945;48.516;-2.768;2023-06-10T01:25:23;18.60;99.50
72814;DHT22;60945;48.516;-2.768;2023-06-10T01:28:07;18.60;99.20
72814;DHT22;60945;48.516;-2.768;2023-06-10T01:30:55;18.60;99.20
72814;DHT22;60945;48.516;-2.768;2023-06-10T01:33:28;18.60;99.30
72814;DHT22;60945;48.516;-2.768;2023-06-10T01:35:57;18.70;99.50
72814;DHT22;60945;48.516;-2.768;2023-06-10T01:38:26;18.60;99.50
72814;DHT22;60945;48.516;-2.768;2023-06-10T01:40:56;18.60;99.50
72814;DHT22;60945;48.516;-2.768;2023-06-10T01:43:22;18.60;99.50
72814;DHT22;60945;48.516;-2.768;2023-06-10T01:45:50;18.60;99.50
72814;DHT22;60945;48.516;-2.768;2023-06-10T01:48:16;18.60;99.70
72814;DHT22;60945;48.516;-2.768;2023-06-10T01:50:42;18.60;99.90
72814;DHT22;60945;48.516;-2.768;2023-06-10T01:53:09;18.60;99.90
72814;DHT22;60945;48.516;-2.768;2023-06-10T01:55:35;18.60;99.90
72814;DHT22;60945;48.516;-2.768;2023-06-10T01:58:00;18.60;99.90
72814;DHT22;60945;48.516;-2.768;2023-06-10T02:00:26;18.60;99.90
72814;DHT22;60945;48.516;-2.768;2023-06-10T02:02:52;18.60;99.90
72814;DHT22;60945;48.516;-2.768;2023-06-10T02:05:17;18.60;99.90
72814;DHT22;60945;48.516;-2.768;2023-06-10T02:07:43;18.60;99.90
72814;DHT22;60945;48.516;-2.768;2023-06-10T02:10:09;18.50;99.90
72814;DHT22;60945;48.516;-2.768;2023-06-10T02:12:35;18.50;99.90
72814;DHT22;60945;48.516;-2.768;2023-06-10T02:15:00;18.50;99.90
72814;DHT22;60945;48.516;-2.768;2023-06-10T02:17:29;18.50;99.90
72814;DHT22;60945;48.516;-2.768;2023-06-10T02:19:55;18.50;99.90
72814;DHT22;60945;48.516;-2.768;2023-06-10T02:22:23;18.50;99.90
72814;DHT22;60945;48.516;-2.768;2023-06-10T02:24:49;18.50;99.90
72814;DHT22;60945;48.516;-2.768;2023-06-10T02:27:15;18.50;99.90
72814;DHT22;60945;48.516;-2.768;2023-06-10T02:29:41;18.50;99.90
72814;DHT22;60945;48.516;-2.768;2023-06-10T02:32:08;18.50;99.90
72814;DHT22;60945;48.516;-2.768;2023-06-10T02:34:33;18.50;99.90
72814;DHT22;60945;48.516;-2.768;2023-06-10T02:37:00;18.50;99.90
72814;DHT22;60945;48.516;-2.768;2023-06-10T02:39:27;18.60;99.90
72814;DHT22;60945;48.516;-2.768;2023-06-10T02:41:52;18.60;99.90
72814;DHT22;60945;48.516;-2.768;2023-06-10T02:44:18;18.60;99.90
72814;DHT22;60945;48.516;-2.768;2023-06-10T02:46:44;18.60;99.90
72814;DHT22;60945;48.516;-2.768;2023-06-10T02:49:11;18.50;99.90
72814;DHT22;60945;48.516;-2.768;2023-06-10T02:51:37;18.50;99.90
72814;DHT22;60945;48.516;-2.768;2023-06-10T02:54:02;18.50;99.90
72814;DHT22;60945;48.516;-2.768;2023-06-10T02:56:28;18.50;99.90
72814;DHT22;60945;48.516;-2.768;2023-06-10T02:58:53;18.50;99.90
72814;DHT22;60945;48.516;-2.768;2023-06-10T03:01:19;18.50;99.90
72814;DHT22;60945;48.516;-2.768;2023-06-10T03:03:45;18.50;99.90
72814;DHT22;60945;48.516;-2.768;2023-06-10T03:06:12;18.40;99.90
72814;DHT22;60945;48.516;-2.768;2023-06-10T03:08:39;18.50;99.90
72814;DHT22;60945;48.516;-2.768;2023-06-10T03:11:05;18.40;99.90
72814;DHT22;60945;48.516;-2.768;2023-06-10T03:13:32;18.50;99.90
72814;DHT22;60945;48.516;-2.768;2023-06-10T03:15:57;18.40;99.90
72814;DHT22;60945;48.516;-2.768;2023-06-10T03:18:27;18.40;99.90
72814;DHT22;60945;48.516;-2.768;2023-06-10T03:20:53;18.40;99.90
72814;DHT22;60945;48.516;-2.768;2023-06-10T03:23:22;18.40;99.90
72814;DHT22;60945;48.516;-2.768;2023-06-10T03:25:48;18.40;99.90
72814;DHT22;60945;48.516;-2.768;2023-06-10T03:28:14;18.40;99.90
72814;DHT22;60945;48.516;-2.768;2023-06-10T03:30:40;18.40;99.90
72814;DHT22;60945;48.516;-2.768;2023-06-10T03:33:06;18.40;99.90
72814;DHT22;60945;48.516;-2.768;2023-06-10T03:35:31;18.30;99.90
72814;DHT22;60945;48.516;-2.768;2023-06-10T03:37:58;18.30;99.90
72814;DHT22;60945;48.516;-2.768;2023-06-10T03:40:24;18.30;99.90
72814;DHT22;60945;48.516;-2.768;2023-06-10T03:42:50;18.30;99.90
72814;DHT22;60945;48.516;-2.768;2023-06-10T03:45:15;18.30;99.90
72814;DHT22;60945;48.516;-2.768;2023-06-10T03:47:41;18.30;99.90
72814;DHT22;60945;48.516;-2.768;2023-06-10T03:50:09;18.30;99.90
72814;DHT22;60945;48.516;-2.768;2023-06-10T03:52:38;18.20;99.90
72814;DHT22;60945;48.516;-2.768;2023-06-10T03:55:04;18.20;99.90
72814;DHT22;60945;48.516;-2.768;2023-06-10T03:57:30;18.20;99.90
72814;DHT22;60945;48.516;-2.768;2023-06-10T03:59:58;18.20;99.90
72814;DHT22;60945;48.516;-2.768;2023-06-10T04:02:24;18.20;99.90
72814;DHT22;60945;48.516;-2.768;2023-06-10T04:04:50;18.10;99.90
72814;DHT22;60945;48.516;-2.768;2023-06-10T04:07:17;18.10;99.90
72814;DHT22;60945;48.516;-2.768;2023-06-10T04:09:44;18.00;99.90
72814;DHT22;60945;48.516;-2.768;2023-06-10T04:12:10;18.00;99.90
72814;DHT22;60945;48.516;-2.768;2023-06-10T04:14:36;18.00;99.90
72814;DHT22;60945;48.516;-2.768;2023-06-10T04:17:04;18.00;99.90
72814;DHT22;60945;48.516;-2.768;2023-06-10T04:19:32;18.00;99.90
72814;DHT22;60945;48.516;-2.768;2023-06-10T04:21:57;17.90;99.90
72814;DHT22;60945;48.516;-2.768;2023-06-10T04:24:23;18.00;99.90
72814;DHT22;60945;48.516;-2.768;2023-06-10T04:26:49;18.00;99.90
72814;DHT22;60945;48.516;-2.768;2023-06-10T04:29:15;18.00;99.90
72814;DHT22;60945;48.516;-2.768;2023-06-10T04:31:40;18.00;99.90
72814;DHT22;60945;48.516;-2.768;2023-06-10T04:34:06;17.90;99.90
72814;DHT22;60945;48.516;-2.768;2023-06-10T04:36:33;17.90;99.90
72814;DHT22;60945;48.516;-2.768;2023-06-10T04:38:58;17.90;99.90
72814;DHT22;60945;48.516;-2.768;2023-06-10T04:41:24;17.90;99.90
72814;DHT22;60945;48.516;-2.768;2023-06-10T04:43:51;17.90;99.90
72814;DHT22;60945;48.516;-2.768;2023-06-10T04:46:17;17.90;99.90
72814;DHT22;60945;48.516;-2.768;2023-06-10T04:48:42;17.90;99.90
72814;DHT22;60945;48.516;-2.768;2023-06-10T04:51:12;17.80;99.90
72814;DHT22;60945;48.516;-2.768;2023-06-10T04:53:38;17.80;99.90
72814;DHT22;60945;48.516;-2.768;2023-06-10T04:56:04;17.80;99.90
72814;DHT22;60945;48.516;-2.768;2023-06-10T04:58:30;17.80;99.90
72814;DHT22;60945;48.516;-2.768;2023-06-10T05:00:56;17.80;99.90
72814;DHT22;60945;48.516;-2.768;2023-06-10T05:03:21;17.80;99.90
72814;DHT22;60945;48.516;-2.768;2023-06-10T05:05:47;17.80;99.90
72814;DHT22;60945;48.516;-2.768;2023-06-10T05:08:12;17.80;99.90
72814;DHT22;60945;48.516;-2.768;2023-06-10T05:10:38;17.80;99.90
72814;DHT22;60945;48.516;-2.768;2023-06-10T05:13:04;17.80;99.90
72814;DHT22;60945;48.516;-2.768;2023-06-10T05:15:29;17.80;99.90
72814;DHT22;60945;48.516;-2.768;2023-06-10T05:17:57;17.80;99.90
72814;DHT22;60945;48.516;-2.768;2023-06-10T05:20:28;17.90;99.90
72814;DHT22;60945;48.516;-2.768;2023-06-10T05:22:56;17.90;99.90
72814;DHT22;60945;48.516;-2.768;2023-06-10T05:25:22;17.90;99.90
72814;DHT22;60945;48.516;-2.768;2023-06-10T05:27:48;17.90;99.90
72814;DHT22;60945;48.516;-2.768;2023-06-10T05:30:13;17.90;99.70
72814;DHT22;60945;48.516;-2.768;2023-06-10T05:32:39;18.00;99.40
72814;DHT22;60945;48.516;-2.768;2023-06-10T05:35:05;18.10;99.00
72814;DHT22;60945;48.516;-2.768;2023-06-10T05:37:34;18.10;98.30
72814;DHT22;60945;48.516;-2.768;2023-06-10T05:40:02;18.10;97.80
72814;DHT22;60945;48.516;-2.768;2023-06-10T05:42:29;18.20;97.50
72814;DHT22;60945;48.516;-2.768;2023-06-10T05:44:55;18.20;97.20
72814;DHT22;60945;48.516;-2.768;2023-06-10T05:47:21;18.30;96.80
72814;DHT22;60945;48.516;-2.768;2023-06-10T05:49:46;18.30;96.70
72814;DHT22;60945;48.516;-2.768;2023-06-10T05:52:14;18.40;96.30
72814;DHT22;60945;48.516;-2.768;2023-06-10T05:54:40;18.50;95.80
72814;DHT22;60945;48.516;-2.768;2023-06-10T05:57:05;18.60;95.40
72814;DHT22;60945;48.516;-2.768;2023-06-10T05:59:31;18.70;95.00
72814;DHT22;60945;48.516;-2.768;2023-06-10T06:02:00;18.80;94.10
72814;DHT22;60945;48.516;-2.768;2023-06-10T06:04:25;18.90;93.30
72814;DHT22;60945;48.516;-2.768;2023-06-10T06:06:51;19.00;92.30
72814;DHT22;60945;48.516;-2.768;2023-06-10T06:09:16;19.00;91.50
72814;DHT22;60945;48.516;-2.768;2023-06-10T06:11:42;19.00;90.90
72814;DHT22;60945;48.516;-2.768;2023-06-10T06:14:08;19.10;90.50
72814;DHT22;60945;48.516;-2.768;2023-06-10T06:16:33;19.20;89.70
72814;DHT22;60945;48.516;-2.768;2023-06-10T06:19:02;19.40;88.80
72814;DHT22;60945;48.516;-2.768;2023-06-10T06:21:27;19.50;88.20
72814;DHT22;60945;48.516;-2.768;2023-06-10T06:23:53;19.60;87.80
72814;DHT22;60945;48.516;-2.768;2023-06-10T06:26:18;19.70;87.00
72814;DHT22;60945;48.516;-2.768;2023-06-10T06:28:46;19.70;86.20
72814;DHT22;60945;48.516;-2.768;2023-06-10T06:31:12;19.70;86.00
72814;DHT22;60945;48.516;-2.768;2023-06-10T06:33:38;19.80;86.00
72814;DHT22;60945;48.516;-2.768;2023-06-10T06:36:03;19.90;85.30
72814;DHT22;60945;48.516;-2.768;2023-06-10T06:38:29;19.90;85.00
72814;DHT22;60945;48.516;-2.768;2023-06-10T06:40:54;19.90;85.60
72814;DHT22;60945;48.516;-2.768;2023-06-10T06:43:20;19.90;85.70
72814;DHT22;60945;48.516;-2.768;2023-06-10T06:45:46;19.80;84.70
72814;DHT22;60945;48.516;-2.768;2023-06-10T06:48:12;19.80;84.90
72814;DHT22;60945;48.516;-2.768;2023-06-10T06:50:37;19.90;84.60
72814;DHT22;60945;48.516;-2.768;2023-06-10T06:53:04;20.10;83.70
72814;DHT22;60945;48.516;-2.768;2023-06-10T06:55:29;20.30;82.70
72814;DHT22;60945;48.516;-2.768;2023-06-10T06:57:55;20.30;82.20
72814;DHT22;60945;48.516;-2.768;2023-06-10T07:00:21;20.40;81.50
72814;DHT22;60945;48.516;-2.768;2023-06-10T07:02:47;20.40;81.60
72814;DHT22;60945;48.516;-2.768;2023-06-10T07:05:13;20.60;81.20
72814;DHT22;60945;48.516;-2.768;2023-06-10T07:07:39;20.60;80.70
72814;DHT22;60945;48.516;-2.768;2023-06-10T07:10:05;20.70;81.00
72814;DHT22;60945;48.516;-2.768;2023-06-10T07:12:31;20.80;80.30
72814;DHT22;60945;48.516;-2.768;2023-06-10T07:14:56;20.80;80.10
72814;DHT22;60945;48.516;-2.768;2023-06-10T07:17:22;20.90;80.00
72814;DHT22;60945;48.516;-2.768;2023-06-10T07:19:47;20.80;80.50
72814;DHT22;60945;48.516;-2.768;2023-06-10T07:22:14;20.90;80.70
72814;DHT22;60945;48.516;-2.768;2023-06-10T07:24:40;21.00;79.70
72814;DHT22;60945;48.516;-2.768;2023-06-10T07:27:06;20.80;79.10
72814;DHT22;60945;48.516;-2.768;2023-06-10T07:29:32;20.90;79.20
72814;DHT22;60945;48.516;-2.768;2023-06-10T07:31:58;21.00;78.90
72814;DHT22;60945;48.516;-2.768;2023-06-10T07:34:24;21.10;78.30
72814;DHT22;60945;48.516;-2.768;2023-06-10T07:36:49;21.40;78.20
72814;DHT22;60945;48.516;-2.768;2023-06-10T07:39:15;21.60;77.40
72814;DHT22;60945;48.516;-2.768;2023-06-10T07:41:40;21.90;76.20
72814;DHT22;60945;48.516;-2.768;2023-06-10T07:44:06;21.90;74.90
72814;DHT22;60945;48.516;-2.768;2023-06-10T07:46:32;22.20;74.30
72814;DHT22;60945;48.516;-2.768;2023-06-10T07:48:58;22.30;73.30
72814;DHT22;60945;48.516;-2.768;2023-06-10T07:51:23;22.60;73.10
72814;DHT22;60945;48.516;-2.768;2023-06-10T07:53:49;22.60;71.30
72814;DHT22;60945;48.516;-2.768;2023-06-10T07:56:15;22.50;72.10
72814;DHT22;60945;48.516;-2.768;2023-06-10T07:58:40;22.60;72.80
72814;DHT22;60945;48.516;-2.768;2023-06-10T08:01:06;22.70;72.40
72814;DHT22;60945;48.516;-2.768;2023-06-10T08:03:32;23.00;73.00
72814;DHT22;60945;48.516;-2.768;2023-06-10T08:05:59;23.20;69.70
72814;DHT22;60945;48.516;-2.768;2023-06-10T08:08:32;23.60;68.70
72814;DHT22;60945;48.516;-2.768;2023-06-10T08:10:58;23.60;68.50
72814;DHT22;60945;48.516;-2.768;2023-06-10T08:13:23;22.80;71.80
72814;DHT22;60945;48.516;-2.768;2023-06-10T08:15:49;22.80;72.60
72814;DHT22;60945;48.516;-2.768;2023-06-10T08:18:16;23.00;71.60
72814;DHT22;60945;48.516;-2.768;2023-06-10T08:20:41;23.10;71.10
72814;DHT22;60945;48.516;-2.768;2023-06-10T08:23:07;23.30;70.10
72814;DHT22;60945;48.516;-2.768;2023-06-10T08:25:35;23.20;69.40
72814;DHT22;60945;48.516;-2.768;2023-06-10T08:28:01;22.90;70.60
72814;DHT22;60945;48.516;-2.768;2023-06-10T08:30:27;22.80;71.90
72814;DHT22;60945;48.516;-2.768;2023-06-10T08:32:52;22.80;72.20
72814;DHT22;60945;48.516;-2.768;2023-06-10T08:35:18;22.80;71.80
72814;DHT22;60945;48.516;-2.768;2023-06-10T08:37:47;22.70;72.80
72814;DHT22;60945;48.516;-2.768;2023-06-10T08:40:12;22.70;72.70
72814;DHT22;60945;48.516;-2.768;2023-06-10T08:45:24;22.90;71.80
72814;DHT22;60945;48.516;-2.768;2023-06-10T08:47:54;23.60;69.30
72814;DHT22;60945;48.516;-2.768;2023-06-10T08:50:21;23.90;69.10
72814;DHT22;60945;48.516;-2.768;2023-06-10T08:52:48;23.60;68.20
72814;DHT22;60945;48.516;-2.768;2023-06-10T08:55:18;23.30;70.50
72814;DHT22;60945;48.516;-2.768;2023-06-10T08:57:48;23.10;71.20
72814;DHT22;60945;48.516;-2.768;2023-06-10T09:00:15;23.00;72.30
72814;DHT22;60945;48.516;-2.768;2023-06-10T09:02:42;23.00;72.90
72814;DHT22;60945;48.516;-2.768;2023-06-10T09:05:09;22.90;72.20
72814;DHT22;60945;48.516;-2.768;2023-06-10T09:07:35;22.70;72.60
72814;DHT22;60945;48.516;-2.768;2023-06-10T09:10:02;23.00;72.10
72814;DHT22;60945;48.516;-2.768;2023-06-10T09:12:33;23.00;71.30
72814;DHT22;60945;48.516;-2.768;2023-06-10T09:14:59;22.90;71.80
72814;DHT22;60945;48.516;-2.768;2023-06-10T09:17:30;22.90;72.60
72814;DHT22;60945;48.516;-2.768;2023-06-10T09:19:56;23.20;70.50
72814;DHT22;60945;48.516;-2.768;2023-06-10T09:22:23;23.40;68.90
72814;DHT22;60945;48.516;-2.768;2023-06-10T09:24:49;23.60;69.00
72814;DHT22;60945;48.516;-2.768;2023-06-10T09:27:15;23.70;67.70
72814;DHT22;60945;48.516;-2.768;2023-06-10T09:29:47;23.80;67.20
72814;DHT22;60945;48.516;-2.768;2023-06-10T09:32:13;23.70;67.70
72814;DHT22;60945;48.516;-2.768;2023-06-10T09:34:39;23.50;68.90
72814;DHT22;60945;48.516;-2.768;2023-06-10T09:37:05;23.50;69.60
72814;DHT22;60945;48.516;-2.768;2023-06-10T09:39:32;23.60;68.80
72814;DHT22;60945;48.516;-2.768;2023-06-10T09:41:57;23.40;69.10
72814;DHT22;60945;48.516;-2.768;2023-06-10T09:44:23;22.90;71.00
72814;DHT22;60945;48.516;-2.768;2023-06-10T09:46:50;22.60;74.10
72814;DHT22;60945;48.516;-2.768;2023-06-10T09:49:19;22.30;74.80
72814;DHT22;60945;48.516;-2.768;2023-06-10T09:51:54;22.20;74.40
72814;DHT22;60945;48.516;-2.768;2023-06-10T09:54:21;22.10;75.40
72814;DHT22;60945;48.516;-2.768;2023-06-10T09:56:51;22.10;76.50
72814;DHT22;60945;48.516;-2.768;2023-06-10T09:59:28;21.90;75.70
72814;DHT22;60945;48.516;-2.768;2023-06-10T10:01:55;21.70;77.00
72814;DHT22;60945;48.516;-2.768;2023-06-10T10:04:25;21.70;78.50
72814;DHT22;60945;48.516;-2.768;2023-06-10T10:06:51;21.60;78.00
72814;DHT22;60945;48.516;-2.768;2023-06-10T10:09:16;21.30;78.60
72814;DHT22;60945;48.516;-2.768;2023-06-10T10:11:43;21.30;79.60
72814;DHT22;60945;48.516;-2.768;2023-06-10T10:14:09;21.20;77.80
72814;DHT22;60945;48.516;-2.768;2023-06-10T10:16:41;20.80;77.90
72814;DHT22;60945;48.516;-2.768;2023-06-10T10:19:18;20.50;78.70
72814;DHT22;60945;48.516;-2.768;2023-06-10T10:21:52;20.50;78.50
72814;DHT22;60945;48.516;-2.768;2023-06-10T10:27:33;20.40;78.10
72814;DHT22;60945;48.516;-2.768;2023-06-10T10:30:02;20.40;77.60
72814;DHT22;60945;48.516;-2.768;2023-06-10T10:32:35;20.30;78.60
72814;DHT22;60945;48.516;-2.768;2023-06-10T10:35:17;20.20;78.40
72814;DHT22;60945;48.516;-2.768;2023-06-10T10:37:47;20.00;79.40
72814;DHT22;60945;48.516;-2.768;2023-06-10T10:40:13;19.90;79.60
72814;DHT22;60945;48.516;-2.768;2023-06-10T10:42:40;19.80;80.10
72814;DHT22;60945;48.516;-2.768;2023-06-10T10:45:08;19.80;80.20
72814;DHT22;60945;48.516;-2.768;2023-06-10T10:47:34;19.80;80.20
72814;DHT22;60945;48.516;-2.768;2023-06-10T10:50:01;19.90;79.80
72814;DHT22;60945;48.516;-2.768;2023-06-10T10:52:53;19.80;80.10
72814;DHT22;60945;48.516;-2.768;2023-06-10T10:55:19;19.90;80.30
72814;DHT22;60945;48.516;-2.768;2023-06-10T10:57:54;20.00;79.60
72814;DHT22;60945;48.516;-2.768;2023-06-10T11:00:30;20.10;79.40
72814;DHT22;60945;48.516;-2.768;2023-06-10T11:03:04;20.10;79.40
72814;DHT22;60945;48.516;-2.768;2023-06-10T11:05:42;20.10;79.50
72814;DHT22;60945;48.516;-2.768;2023-06-10T11:08:10;20.10;79.10
72814;DHT22;60945;48.516;-2.768;2023-06-10T11:10:41;20.10;79.10
72814;DHT22;60945;48.516;-2.768;2023-06-10T11:13:13;20.10;79.00
72814;DHT22;60945;48.516;-2.768;2023-06-10T11:15:44;20.20;79.90
72814;DHT22;60945;48.516;-2.768;2023-06-10T11:18:22;20.50;78.60
72814;DHT22;60945;48.516;-2.768;2023-06-10T11:33:54;20.80;76.80
72814;DHT22;60945;48.516;-2.768;2023-06-10T11:36:20;21.20;75.40
72814;DHT22;60945;48.516;-2.768;2023-06-10T11:38:46;21.80;73.00
72814;DHT22;60945;48.516;-2.768;2023-06-10T11:41:13;22.60;70.60
72814;DHT22;60945;48.516;-2.768;2023-06-10T11:43:45;23.30;67.30
72814;DHT22;60945;48.516;-2.768;2023-06-10T11:46:15;23.50;66.50
72814;DHT22;60945;48.516;-2.768;2023-06-10T11:49:10;24.80;64.30
72814;DHT22;60945;48.516;-2.768;2023-06-10T11:51:38;27.20;55.60
72814;DHT22;60945;48.516;-2.768;2023-06-10T11:54:08;28.50;53.50
72814;DHT22;60945;48.516;-2.768;2023-06-10T11:56:34;33.30;43.30
72814;DHT22;60945;48.516;-2.768;2023-06-10T11:59:04;36.60;36.40
72814;DHT22;60945;48.516;-2.768;2023-06-10T12:01:32;39.20;33.50
72814;DHT22;60945;48.516;-2.768;2023-06-10T12:04:04;41.90;29.20
72814;DHT22;60945;48.516;-2.768;2023-06-10T12:09:29;43.50;27.70
72814;DHT22;60945;48.516;-2.768;2023-06-10T12:11:58;43.90;27.20
72814;DHT22;60945;48.516;-2.768;2023-06-10T12:14:59;44.30;26.90
72814;DHT22;60945;48.516;-2.768;2023-06-10T12:20:00;45.90;25.30
72814;DHT22;60945;48.516;-2.768;2023-06-10T12:22:26;46.50;24.50
72814;DHT22;60945;48.516;-2.768;2023-06-10T12:24:59;46.00;25.60
72814;DHT22;60945;48.516;-2.768;2023-06-10T12:27:25;45.90;25.30
72814;DHT22;60945;48.516;-2.768;2023-06-10T12:29:51;46.10;24.90
72814;DHT22;60945;48.516;-2.768;2023-06-10T12:32:20;47.20;24.20
72814;DHT22;60945;48.516;-2.768;2023-06-10T12:35:07;48.10;24.20
72814;DHT22;60945;48.516;-2.768;2023-06-10T12:37:33;49.10;22.90
72814;DHT22;60945;48.516;-2.768;2023-06-10T12:40:00;49.50;22.60
72814;DHT22;60945;48.516;-2.768;2023-06-10T12:42:28;48.90;23.10
72814;DHT22;60945;48.516;-2.768;2023-06-10T12:44:55;49.00;22.80
72814;DHT22;60945;48.516;-2.768;2023-06-10T12:47:32;48.30;23.50
72814;DHT22;60945;48.516;-2.768;2023-06-10T12:50:00;49.00;23.30
72814;DHT22;60945;48.516;-2.768;2023-06-10T12:52:26;47.90;24.10
72814;DHT22;60945;48.516;-2.768;2023-06-10T12:54:53;48.10;23.60
72814;DHT22;60945;48.516;-2.768;2023-06-10T12:57:19;49.40;22.80
72814;DHT22;60945;48.516;-2.768;2023-06-10T12:59:45;51.20;21.40
72814;DHT22;60945;48.516;-2.768;2023-06-10T13:02:16;51.70;21.40
72814;DHT22;60945;48.516;-2.768;2023-06-10T13:04:43;49.40;22.60
72814;DHT22;60945;48.516;-2.768;2023-06-10T13:07:09;49.40;22.70
72814;DHT22;60945;48.516;-2.768;2023-06-10T13:09:36;45.20;25.00
72814;DHT22;60945;48.516;-2.768;2023-06-10T13:12:02;43.10;27.80
72814;DHT22;60945;48.516;-2.768;2023-06-10T13:14:28;41.60;28.30
72814;DHT22;60945;48.516;-2.768;2023-06-10T13:16:57;37.70;32.80
72814;DHT22;60945;48.516;-2.768;2023-06-10T13:19:23;35.40;36.30
72814;DHT22;60945;48.516;-2.768;2023-06-10T13:21:51;33.30;39.30
72814;DHT22;60945;48.516;-2.768;2023-06-10T13:24:20;32.50;41.00
72814;DHT22;60945;48.516;-2.768;2023-06-10T13:26:46;31.60;42.60
72814;DHT22;60945;48.516;-2.768;2023-06-10T13:29:11;31.00;43.70
72814;DHT22;60945;48.516;-2.768;2023-06-10T13:31:40;30.30;45.10
72814;DHT22;60945;48.516;-2.768;2023-06-10T13:34:07;30.30;45.50
72814;DHT22;60945;48.516;-2.768;2023-06-10T13:36:33;29.70;46.60
72814;DHT22;60945;48.516;-2.768;2023-06-10T13:38:59;29.80;46.70
72814;DHT22;60945;48.516;-2.768;2023-06-10T13:41:25;30.30;47.30
72814;DHT22;60945;48.516;-2.768;2023-06-10T13:43:54;34.90;37.30
72814;DHT22;60945;48.516;-2.768;2023-06-10T13:46:20;36.20;36.70
72814;DHT22;60945;48.516;-2.768;2023-06-10T13:48:47;43.10;28.90
72814;DHT22;60945;48.516;-2.768;2023-06-10T13:51:12;45.50;25.40
72814;DHT22;60945;48.516;-2.768;2023-06-10T13:53:38;42.70;28.20
72814;DHT22;60945;48.516;-2.768;2023-06-10T13:56:04;40.80;29.30
72814;DHT22;60945;48.516;-2.768;2023-06-10T13:58:29;36.40;33.90
72814;DHT22;60945;48.516;-2.768;2023-06-10T14:00:55;39.20;31.80
72814;DHT22;60945;48.516;-2.768;2023-06-10T14:03:20;45.10;25.80
72814;DHT22;60945;48.516;-2.768;2023-06-10T14:05:46;47.90;24.10
72814;DHT22;60945;48.516;-2.768;2023-06-10T14:08:12;47.10;23.40
72814;DHT22;60945;48.516;-2.768;2023-06-10T14:10:37;43.30;27.50
72814;DHT22;60945;48.516;-2.768;2023-06-10T14:13:03;46.20;25.40
72814;DHT22;60945;48.516;-2.768;2023-06-10T14:15:28;48.70;23.00
72814;DHT22;60945;48.516;-2.768;2023-06-10T14:17:55;48.10;23.50
72814;DHT22;60945;48.516;-2.768;2023-06-10T14:20:20;48.50;23.50
72814;DHT22;60945;48.516;-2.768;2023-06-10T14:22:46;49.60;22.20
72814;DHT22;60945;48.516;-2.768;2023-06-10T14:25:11;50.30;22.00
72814;DHT22;60945;48.516;-2.768;2023-06-10T14:27:37;49.90;22.00
72814;DHT22;60945;48.516;-2.768;2023-06-10T14:30:03;49.20;21.70
72814;DHT22;60945;48.516;-2.768;2023-06-10T14:32:29;47.50;24.00
72814;DHT22;60945;48.516;-2.768;2023-06-10T14:34:55;49.10;23.00
72814;DHT22;60945;48.516;-2.768;2023-06-10T14:37:20;49.40;22.50
72814;DHT22;60945;48.516;-2.768;2023-06-10T14:39:46;49.10;22.30
72814;DHT22;60945;48.516;-2.768;2023-06-10T14:42:11;41.80;27.40
72814;DHT22;60945;48.516;-2.768;2023-06-10T14:44:37;38.90;30.80
72814;DHT22;60945;48.516;-2.768;2023-06-10T14:47:05;40.80;29.80
72814;DHT22;60945;48.516;-2.768;2023-06-10T14:49:31;42.60;27.70
72814;DHT22;60945;48.516;-2.768;2023-06-10T14:51:57;43.50;27.00
72814;DHT22;60945;48.516;-2.768;2023-06-10T14:54:24;43.70;26.80
72814;DHT22;60945;48.516;-2.768;2023-06-10T14:56:50;44.70;25.80
72814;DHT22;60945;48.516;-2.768;2023-06-10T14:59:16;43.30;26.80
72814;DHT22;60945;48.516;-2.768;2023-06-10T15:01:41;43.00;27.30
72814;DHT22;60945;48.516;-2.768;2023-06-10T15:04:07;43.40;26.70
72814;DHT22;60945;48.516;-2.768;2023-06-10T15:06:33;43.20;27.00
72814;DHT22;60945;48.516;-2.768;2023-06-10T15:08:58;43.10;27.30
72814;DHT22;60945;48.516;-2.768;2023-06-10T15:11:24;43.70;27.10
72814;DHT22;60945;48.516;-2.768;2023-06-10T15:13:49;42.30;28.10
72814;DHT22;60945;48.516;-2.768;2023-06-10T15:16:15;42.40;28.20
72814;DHT22;60945;48.516;-2.768;2023-06-10T15:18:41;41.60;29.00
72814;DHT22;60945;48.516;-2.768;2023-06-10T15:21:08;41.00;28.80
72814;DHT22;60945;48.516;-2.768;2023-06-10T15:23:34;40.50;29.30
72814;DHT22;60945;48.516;-2.768;2023-06-10T15:26:03;40.00;29.90
72814;DHT22;60945;48.516;-2.768;2023-06-10T15:28:30;40.40;29.60
72814;DHT22;60945;48.516;-2.768;2023-06-10T15:30:55;40.50;29.80
72814;DHT22;60945;48.516;-2.768;2023-06-10T15:33:21;37.10;32.80
72814;DHT22;60945;48.516;-2.768;2023-06-10T15:35:46;36.50;33.70
72814;DHT22;60945;48.516;-2.768;2023-06-10T15:38:13;34.80;35.70
72814;DHT22;60945;48.516;-2.768;2023-06-10T15:40:41;31.60;41.00